createdAt,value
2022-12-26T00:00:53.117Z,39.17
2022-12-26T00:06:00.291Z,39.48
2022-12-26T00:11:07.453Z,39.44
2022-12-26T00:16:14.744Z,39.10
2022-12-26T00:21:21.898Z,39.21
2022-12-26T00:26:29.066Z,38.55
2022-12-26T00:31:36.387Z,39.07
2022-12-26T00:36:43.680Z,38.94
2022-12-26T00:41:50.999Z,38.99
2022-12-26T00:46:58.294Z,38.86
2022-12-26T00:52:05.444Z,38.84
2022-12-26T00:57:12.637Z,38.51
2022-12-26T01:02:19.921Z,38.72
2022-12-26T01:07:27.031Z,38.99
2022-12-26T01:12:34.282Z,38.34
2022-12-26T01:17:41.537Z,38.39
2022-12-26T01:22:48.754Z,37.40
2022-12-26T01:27:55.950Z,38.50
2022-12-26T01:33:03.244Z,38.47
2022-12-26T01:38:10.445Z,38.58
2022-12-26T01:43:17.579Z,38.39
2022-12-26T01:48:24.812Z,38.34
2022-12-26T01:53:32.098Z,38.40
2022-12-26T01:58:39.304Z,37.58
2022-12-26T02:03:46.477Z,38.17
2022-12-26T02:08:53.705Z,38.09
2022-12-26T02:14:00.891Z,37.95
2022-12-26T02:19:08.095Z,37.77
2022-12-26T02:24:15.449Z,37.81
2022-12-26T02:29:22.683Z,37.82
2022-12-26T02:34:29.929Z,37.78
2022-12-26T02:39:45.138Z,37.74
2022-12-26T02:44:44.329Z,37.32
2022-12-26T02:49:51.552Z,37.74
2022-12-26T02:54:58.761Z,37.74
2022-12-26T03:00:05.973Z,37.95
2022-12-26T03:05:13.201Z,38.10
2022-12-26T03:10:20.501Z,36.68
2022-12-26T03:15:27.680Z,36.95
2022-12-26T03:20:34.944Z,37.99
2022-12-26T03:25:42.276Z,38.76
2022-12-26T03:30:49.611Z,37.32
2022-12-26T03:35:56.758Z,37.68
2022-12-26T03:41:03.953Z,37.74
2022-12-26T03:46:11.225Z,37.64
2022-12-26T03:51:18.389Z,38.19
2022-12-26T03:56:25.611Z,38.08
2022-12-26T04:01:32.867Z,38.11
2022-12-26T04:06:40.007Z,38.57
2022-12-26T04:11:47.243Z,38.33
2022-12-26T04:16:54.469Z,38.57
2022-12-26T04:22:01.623Z,39.02
2022-12-26T04:27:08.852Z,38.67
2022-12-26T04:32:16.030Z,38.77
2022-12-26T04:37:23.215Z,38.90
2022-12-26T04:42:30.500Z,38.64
2022-12-26T04:47:37.776Z,38.85
2022-12-26T04:52:44.996Z,38.66
2022-12-26T04:57:52.265Z,38.82
2022-12-26T05:02:59.721Z,38.60
2022-12-26T05:08:06.682Z,38.11
2022-12-26T05:13:13.843Z,37.87
2022-12-26T05:18:20.959Z,38.06
2022-12-26T05:23:28.220Z,38.35
2022-12-26T05:28:35.407Z,37.93
2022-12-26T05:33:42.674Z,38.41
2022-12-26T05:38:49.840Z,38.58
2022-12-26T05:43:57.034Z,38.71
2022-12-26T05:49:04.303Z,38.99
2022-12-26T05:54:11.522Z,39.22
2022-12-26T05:59:18.747Z,39.15
2022-12-26T06:04:25.968Z,38.97
2022-12-26T06:09:33.133Z,38.79
2022-12-26T06:14:40.366Z,39.48
2022-12-26T06:19:47.554Z,39.73
2022-12-26T06:24:54.787Z,39.93
2022-12-26T06:30:02.070Z,39.85
2022-12-26T06:35:09.259Z,40.19
2022-12-26T06:40:16.452Z,40.37
2022-12-26T06:45:23.810Z,40.18
2022-12-26T06:50:30.976Z,40.25
2022-12-26T06:55:38.171Z,40.22
2022-12-26T07:00:45.497Z,40.13
2022-12-26T07:05:52.586Z,40.21
2022-12-26T07:10:59.776Z,40.27
2022-12-26T07:16:07.031Z,40.17
2022-12-26T07:21:14.162Z,40.40
2022-12-26T07:26:21.394Z,40.53
2022-12-26T07:31:28.660Z,40.54
2022-12-26T07:36:35.872Z,40.41
2022-12-26T07:41:43.135Z,40.34
2022-12-26T07:46:50.341Z,40.36
2022-12-26T07:51:57.532Z,40.45
2022-12-26T07:57:38.022Z,40.47
2022-12-26T08:02:12.248Z,40.49
2022-12-26T08:07:19.199Z,40.53
2022-12-26T08:12:26.349Z,40.51
2022-12-26T08:17:33.570Z,40.60
2022-12-26T08:22:40.744Z,40.66
2022-12-26T08:27:47.964Z,40.68
2022-12-26T08:32:55.225Z,40.74
2022-12-26T08:38:02.380Z,40.87
2022-12-26T08:43:30.263Z,40.76
2022-12-26T08:48:16.735Z,40.75
2022-12-26T08:53:23.877Z,40.76
2022-12-26T08:58:31.155Z,40.64
2022-12-26T09:03:38.330Z,40.66
2022-12-26T09:08:45.513Z,40.63
2022-12-26T09:13:52.725Z,40.54
2022-12-26T09:18:59.922Z,40.71
2022-12-26T09:24:07.090Z,40.67
2022-12-26T09:29:14.269Z,40.61
2022-12-26T09:34:21.482Z,40.69
2022-12-26T09:39:28.711Z,40.73
2022-12-26T09:44:35.870Z,40.85
2022-12-26T09:49:43.130Z,40.92
2022-12-26T09:54:50.351Z,40.90
2022-12-26T09:59:57.555Z,41.04
2022-12-26T10:05:04.816Z,41.00
2022-12-26T10:10:12.050Z,40.93
2022-12-26T10:15:19.257Z,41.12
2022-12-26T10:20:26.490Z,41.30
2022-12-26T10:25:34.122Z,41.24
2022-12-26T10:30:40.905Z,41.09
2022-12-26T10:35:48.068Z,40.95
2022-12-26T10:40:55.304Z,40.70
2022-12-26T10:46:02.533Z,40.52
2022-12-26T10:51:09.704Z,40.39
2022-12-26T10:56:18.482Z,40.19
2022-12-26T11:01:24.208Z,40.10
2022-12-26T11:06:31.360Z,39.96
2022-12-26T11:11:38.503Z,39.78
2022-12-26T11:16:45.750Z,39.70
2022-12-26T11:21:53.044Z,39.48
2022-12-26T11:27:00.209Z,39.28
2022-12-26T11:32:07.450Z,39.23
2022-12-26T11:37:14.710Z,39.10
2022-12-26T11:42:21.948Z,39.11
2022-12-26T11:47:29.154Z,39.16
2022-12-26T11:52:36.382Z,38.85
2022-12-26T11:57:43.539Z,38.62
2022-12-26T12:02:50.788Z,38.75
2022-12-26T12:07:58.016Z,39.12
2022-12-26T12:13:05.139Z,38.99
2022-12-26T12:18:12.381Z,38.46
2022-12-26T12:23:19.627Z,38.33
2022-12-26T12:28:26.887Z,38.17
2022-12-26T12:33:34.087Z,38.07
2022-12-26T12:38:41.334Z,37.98
2022-12-26T12:43:48.489Z,37.87
2022-12-26T12:48:55.690Z,37.87
2022-12-26T12:54:02.941Z,37.81
2022-12-26T12:59:10.066Z,37.78
2022-12-26T13:04:17.267Z,37.74
2022-12-26T13:09:24.556Z,37.72
2022-12-26T13:14:31.720Z,37.68
2022-12-26T13:19:38.928Z,37.69
2022-12-26T13:24:46.180Z,37.67
2022-12-26T13:29:53.421Z,37.74
2022-12-26T13:35:00.637Z,37.69
2022-12-26T13:40:07.923Z,37.74
2022-12-26T13:45:15.084Z,37.77
2022-12-26T13:50:22.254Z,37.93
2022-12-26T13:55:29.585Z,38.09
2022-12-26T14:00:36.784Z,38.13
2022-12-26T14:05:43.949Z,38.07
2022-12-26T14:10:51.215Z,38.12
2022-12-26T14:15:58.403Z,38.30
2022-12-26T14:21:05.620Z,38.15
2022-12-26T14:26:12.808Z,38.13
2022-12-26T14:31:19.956Z,38.39
2022-12-26T14:36:27.210Z,38.42
2022-12-26T14:41:34.432Z,38.34
2022-12-26T14:46:41.633Z,38.29
2022-12-26T14:51:48.819Z,38.38
2022-12-26T14:56:56.059Z,38.37
2022-12-26T15:02:03.458Z,38.35
2022-12-26T15:07:14.028Z,38.70
2022-12-26T15:12:17.656Z,39.12
2022-12-26T15:17:24.909Z,39.06
2022-12-26T15:22:32.152Z,39.07
2022-12-26T15:27:39.465Z,39.02
2022-12-26T15:32:46.714Z,39.00
2022-12-26T15:37:53.913Z,38.98
2022-12-26T15:43:01.155Z,38.98
2022-12-26T15:48:08.323Z,38.68
2022-12-26T15:53:15.556Z,38.80
2022-12-26T15:58:22.768Z,38.88
2022-12-26T16:03:30.072Z,38.93
2022-12-26T16:08:37.191Z,39.26
2022-12-26T16:13:44.479Z,39.32
2022-12-26T16:18:51.621Z,39.07
2022-12-26T16:23:58.911Z,39.14
2022-12-26T16:29:06.169Z,39.24
2022-12-26T16:34:13.341Z,39.06
2022-12-26T16:39:20.541Z,38.91
2022-12-26T16:44:30.396Z,38.68
2022-12-26T16:49:34.927Z,37.91
2022-12-26T16:54:42.144Z,38.19
2022-12-26T16:59:49.388Z,38.62
2022-12-26T17:04:58.552Z,38.35
2022-12-26T17:10:07.001Z,38.66
2022-12-26T17:15:11.110Z,38.61
2022-12-26T17:20:18.343Z,38.80
2022-12-26T17:25:25.551Z,39.02
2022-12-26T17:30:32.895Z,39.29
2022-12-26T17:36:25.359Z,39.27
2022-12-26T17:40:47.497Z,39.41
2022-12-26T17:45:54.731Z,39.39
2022-12-26T17:51:01.917Z,39.66
2022-12-26T17:56:09.145Z,39.41
2022-12-26T18:01:21.031Z,39.59
2022-12-26T18:06:23.823Z,39.60
2022-12-26T18:11:31.039Z,39.64
2022-12-26T18:16:38.617Z,39.65
2022-12-26T18:21:45.899Z,39.57
2022-12-26T18:26:53.111Z,39.78
2022-12-26T18:32:00.400Z,39.66
2022-12-26T18:37:07.493Z,39.66
2022-12-26T18:42:15.999Z,39.59
2022-12-26T18:47:23.421Z,39.06
2022-12-26T18:52:30.644Z,39.35
2022-12-26T18:57:37.851Z,39.24
2022-12-26T19:02:45.211Z,39.22
2022-12-26T19:07:52.324Z,39.13
2022-12-26T19:13:05.032Z,39.32
2022-12-26T19:18:07.289Z,39.16
2022-12-26T19:23:14.544Z,38.84
2022-12-26T19:28:21.754Z,38.88
2022-12-26T19:33:29.313Z,38.72
2022-12-26T19:38:36.886Z,38.75
2022-12-26T19:43:44.502Z,38.69
2022-12-26T19:48:51.865Z,38.73
2022-12-26T19:53:59.320Z,38.71
2022-12-26T19:59:06.668Z,38.86
2022-12-26T20:04:13.850Z,38.77
2022-12-26T20:09:21.348Z,38.70
2022-12-26T20:14:28.744Z,38.75
2022-12-26T20:19:36.091Z,38.66
2022-12-26T20:24:43.471Z,38.73
2022-12-26T20:29:50.936Z,38.64
2022-12-26T20:34:58.239Z,38.58
2022-12-26T20:40:05.708Z,38.48
2022-12-26T20:45:13.423Z,38.38
2022-12-26T20:50:21.065Z,38.35
2022-12-26T20:55:28.644Z,38.40
2022-12-26T21:00:35.980Z,38.31
2022-12-26T21:05:43.492Z,38.35
2022-12-26T21:10:51.021Z,38.21
2022-12-26T21:15:58.232Z,38.13
2022-12-26T21:21:05.489Z,38.20
2022-12-26T21:26:12.686Z,38.16
2022-12-26T21:31:20.012Z,38.18
2022-12-26T21:36:27.145Z,38.08
2022-12-26T21:41:34.274Z,38.05
2022-12-26T21:46:41.572Z,38.04
2022-12-26T21:51:48.754Z,38.14
2022-12-26T21:56:55.978Z,38.13
2022-12-26T22:02:03.385Z,38.16
2022-12-26T22:07:10.457Z,38.15
2022-12-26T22:12:17.648Z,38.04
2022-12-26T22:17:24.872Z,38.07
2022-12-26T22:22:32.115Z,38.21
2022-12-26T22:27:39.245Z,38.33
2022-12-26T22:32:46.439Z,38.36
2022-12-26T22:37:53.670Z,38.48
2022-12-26T22:43:00.873Z,38.53
2022-12-26T22:48:10.653Z,38.48
2022-12-26T22:53:18.398Z,38.61
2022-12-26T22:58:25.590Z,39.13
2022-12-26T23:03:32.902Z,38.74
2022-12-26T23:08:40.101Z,38.58
2022-12-26T23:13:47.269Z,38.66
2022-12-26T23:18:54.440Z,38.69
2022-12-26T23:24:01.607Z,38.67
2022-12-26T23:29:08.816Z,38.76
2022-12-26T23:34:16.017Z,38.94
2022-12-26T23:39:23.223Z,38.93
2022-12-26T23:44:30.391Z,38.94
2022-12-26T23:49:37.625Z,38.99
2022-12-26T23:54:44.952Z,39.03
2022-12-26T23:59:52.174Z,39.06
